createdAt,value
2022-08-22T00:02:26.736Z,42.02
2022-08-22T00:02:46.653Z,39.93
2022-08-22T00:02:53.143Z,35.41
2022-08-22T00:02:55.811Z,41.02
2022-08-22T00:05:05.122Z,41.92
2022-08-22T00:07:46.398Z,41.84
2022-08-22T00:10:25.616Z,42.24
2022-08-22T00:13:04.758Z,42.09
2022-08-22T00:15:43.533Z,42.42
2022-08-22T00:18:17.081Z,42.59
2022-08-22T00:20:51.007Z,42.57
2022-08-22T00:23:29.121Z,42.23
2022-08-22T00:26:05.411Z,42.38
2022-08-22T00:28:41.811Z,42.49
2022-08-22T00:31:21.307Z,42.61
2022-08-22T00:33:55.232Z,42.81
2022-08-22T00:36:34.008Z,43.05
2022-08-22T00:39:13.435Z,42.82
2022-08-22T00:42:31.386Z,43.03
2022-08-22T00:45:43.328Z,42.93
2022-08-22T00:48:37.626Z,43.23
2022-08-22T00:51:33.513Z,43.22
2022-08-22T00:54:17.639Z,43.22
2022-08-22T00:57:21.013Z,43.13
2022-08-22T01:00:07.129Z,42.93
2022-08-22T01:02:54.149Z,42.89
2022-08-22T01:05:52.139Z,43.13
2022-08-22T01:08:45.461Z,42.94
2022-08-22T01:11:34.489Z,43.22
2022-08-22T01:14:34.100Z,43.36
2022-08-22T01:17:28.954Z,42.86
2022-08-22T01:20:33.125Z,43.42
2022-08-22T01:23:55.963Z,43.73
2022-08-22T01:27:07.150Z,44.14
2022-08-22T01:30:16.480Z,45.31
2022-08-22T01:33:22.687Z,46.89
2022-08-22T01:36:17.092Z,47.57
2022-08-22T01:39:16.881Z,47.62
2022-08-22T01:42:13.321Z,47.65
2022-08-22T01:45:29.033Z,47.58
2022-08-22T01:48:06.864Z,48.02
2022-08-22T01:50:41.503Z,48.75
2022-08-22T01:53:23.838Z,50.18
2022-08-22T01:56:05.273Z,50.85
2022-08-22T01:58:37.731Z,50.62
2022-08-22T02:01:26.473Z,50.35
2022-08-22T02:04:05.565Z,50.58
2022-08-22T02:06:44.104Z,50.63
2022-08-22T02:09:30.997Z,50.17
2022-08-22T02:12:21.881Z,50.36
2022-08-22T02:14:59.589Z,49.99
2022-08-22T02:17:31.975Z,51.61
2022-08-22T02:20:11.355Z,50.28
2022-08-22T02:22:55.189Z,50.72
2022-08-22T02:25:32.294Z,51.10
2022-08-22T02:28:11.369Z,51.82
2022-08-22T02:30:49.697Z,52.60
2022-08-22T02:33:32.227Z,51.88
2022-08-22T02:36:11.440Z,51.41
2022-08-22T02:38:51.040Z,51.98
2022-08-22T02:41:30.918Z,52.14
2022-08-22T02:44:06.854Z,50.72
2022-08-22T02:46:49.110Z,51.20
2022-08-22T02:49:27.436Z,50.88
2022-08-22T02:52:10.117Z,50.86
2022-08-22T02:54:44.989Z,50.13
2022-08-22T02:57:20.947Z,50.42
2022-08-22T03:00:31.512Z,49.77
2022-08-22T03:03:06.990Z,50.06
2022-08-22T03:05:50.834Z,50.24
2022-08-22T03:08:26.461Z,50.52
2022-08-22T03:11:06.613Z,50.58
2022-08-22T03:13:54.716Z,50.22
2022-08-22T03:16:33.591Z,49.64
2022-08-22T03:19:13.209Z,49.70
2022-08-22T03:21:57.532Z,49.70
2022-08-22T03:24:35.171Z,49.40
2022-08-22T03:27:13.334Z,49.29
2022-08-22T03:30:03.907Z,48.36
2022-08-22T03:32:49.920Z,49.34
2022-08-22T03:35:27.907Z,48.75
2022-08-22T03:38:14.206Z,48.60
2022-08-22T03:41:11.622Z,48.25
2022-08-22T03:44:08.467Z,48.74
2022-08-22T03:47:08.592Z,48.50
2022-08-22T03:50:29.198Z,48.23
2022-08-22T03:53:22.742Z,48.49
2022-08-22T03:56:33.465Z,48.57
2022-08-22T03:59:27.151Z,48.06
2022-08-22T04:02:43.131Z,47.93
2022-08-22T04:05:58.806Z,47.39
2022-08-22T04:09:14.562Z,47.88
2022-08-22T04:12:18.669Z,47.44
2022-08-22T04:15:21.968Z,47.41
2022-08-22T04:18:25.997Z,47.17
2022-08-22T04:21:16.050Z,46.25
2022-08-22T04:24:14.873Z,46.06
2022-08-22T04:26:49.914Z,45.82
2022-08-22T04:29:24.975Z,45.48
2022-08-22T04:32:02.663Z,45.19
2022-08-22T04:34:39.646Z,45.01
2022-08-22T04:37:16.958Z,45.40
2022-08-22T04:39:53.312Z,45.67
2022-08-22T04:42:32.798Z,45.31
2022-08-22T04:45:08.476Z,44.87
2022-08-22T04:47:41.650Z,44.82
2022-08-22T04:50:20.787Z,44.27
2022-08-22T04:53:13.526Z,43.86
2022-08-22T04:55:53.049Z,43.12
2022-08-22T04:58:33.697Z,42.88
2022-08-22T05:01:15.045Z,42.75
2022-08-22T05:03:52.734Z,42.08
2022-08-22T05:06:28.189Z,41.14
2022-08-22T05:09:01.565Z,41.06
2022-08-22T05:11:32.447Z,40.44
2022-08-22T05:14:06.648Z,40.18
2022-08-22T05:16:39.333Z,40.21
2022-08-22T05:19:16.909Z,40.08
2022-08-22T05:21:51.334Z,39.91
2022-08-22T05:24:28.031Z,38.95
2022-08-22T05:27:01.634Z,39.01
2022-08-22T05:29:34.701Z,39.31
2022-08-22T05:32:09.717Z,39.09
2022-08-22T05:34:41.876Z,39.40
2022-08-22T05:37:15.990Z,38.93
2022-08-22T05:39:49.280Z,38.96
2022-08-22T05:42:25.152Z,38.46
2022-08-22T05:44:56.026Z,37.83
2022-08-22T05:47:29.465Z,37.80
2022-08-22T05:50:05.039Z,37.32
2022-08-22T05:53:03.066Z,37.45
2022-08-22T05:55:40.135Z,37.36
2022-08-22T05:58:39.198Z,37.71
2022-08-22T06:01:21.350Z,37.62
2022-08-22T06:04:00.900Z,38.19
2022-08-22T06:06:34.514Z,37.49
2022-08-22T06:09:13.916Z,37.71
2022-08-22T06:11:51.668Z,37.69
2022-08-22T06:14:33.357Z,38.02
2022-08-22T06:17:09.826Z,37.95
2022-08-22T06:19:43.143Z,38.18
2022-08-22T06:22:18.710Z,38.46
2022-08-22T06:24:52.592Z,38.17
2022-08-22T06:27:25.677Z,38.22
2022-08-22T06:29:59.347Z,38.22
2022-08-22T06:32:44.557Z,37.87
2022-08-22T06:35:25.906Z,38.21
2022-08-22T06:38:01.027Z,37.66
2022-08-22T06:40:32.518Z,37.74
2022-08-22T06:43:01.446Z,37.37
2022-08-22T06:45:33.960Z,38.08
2022-08-22T06:48:17.369Z,37.88
2022-08-22T06:50:50.720Z,38.07
2022-08-22T06:53:23.758Z,37.47
2022-08-22T06:55:58.306Z,37.17
2022-08-22T06:58:34.270Z,37.38
2022-08-22T07:01:11.390Z,36.38
2022-08-22T07:03:46.731Z,36.54
2022-08-22T07:06:17.536Z,36.61
2022-08-22T07:08:47.417Z,36.07
2022-08-22T07:11:25.898Z,36.88
2022-08-22T07:13:58.877Z,36.51
2022-08-22T07:16:33.348Z,36.17
2022-08-22T07:19:03.370Z,35.72
2022-08-22T07:21:43.749Z,36.31
2022-08-22T07:24:19.489Z,36.44
2022-08-22T07:27:05.507Z,36.69
2022-08-22T07:29:45.575Z,36.65
2022-08-22T07:32:21.086Z,36.91
2022-08-22T07:35:04.856Z,36.89
2022-08-22T07:37:52.692Z,36.57
2022-08-22T07:40:30.107Z,36.23
2022-08-22T07:43:09.861Z,36.71
2022-08-22T07:45:45.370Z,37.12
2022-08-22T07:48:25.811Z,36.51
2022-08-22T07:51:11.499Z,36.64
2022-08-22T07:53:45.125Z,36.34
2022-08-22T07:56:18.721Z,35.85
2022-08-22T07:58:55.010Z,35.87
2022-08-22T08:01:25.577Z,35.86
2022-08-22T08:03:59.558Z,35.97
2022-08-22T08:06:31.585Z,36.35
2022-08-22T08:09:01.428Z,36.11
2022-08-22T08:11:38.559Z,36.12
2022-08-22T08:14:13.722Z,35.74
2022-08-22T08:16:46.342Z,36.39
2022-08-22T08:19:19.293Z,36.17
2022-08-22T08:21:53.154Z,36.04
2022-08-22T08:24:27.325Z,35.90
2022-08-22T08:27:16.075Z,35.49
2022-08-22T08:29:54.925Z,34.76
2022-08-22T08:32:26.477Z,34.04
2022-08-22T08:34:56.797Z,34.81
2022-08-22T08:37:31.614Z,35.20
2022-08-22T08:40:04.482Z,34.49
2022-08-22T08:43:14.323Z,34.32
2022-08-22T08:46:08.302Z,34.54
2022-08-22T08:49:06.932Z,35.09
2022-08-22T08:51:52.808Z,35.37
2022-08-22T08:54:44.738Z,35.16
2022-08-22T08:57:22.584Z,34.98
2022-08-22T09:00:04.891Z,35.06
2022-08-22T09:02:51.989Z,34.72
2022-08-22T09:05:56.188Z,34.60
2022-08-22T09:09:01.104Z,34.71
2022-08-22T09:12:01.189Z,34.35
2022-08-22T09:14:50.481Z,34.66
2022-08-22T09:17:41.049Z,34.46
2022-08-22T09:20:36.315Z,33.96
2022-08-22T09:23:37.372Z,33.62
2022-08-22T09:26:17.591Z,32.97
2022-08-22T09:28:55.666Z,32.90
2022-08-22T09:31:48.155Z,32.43
2022-08-22T09:34:28.451Z,32.97
2022-08-22T09:37:14.394Z,32.77
2022-08-22T09:39:52.886Z,32.97
2022-08-22T09:42:32.776Z,33.29
2022-08-22T09:45:42.899Z,33.26
2022-08-22T09:48:37.032Z,33.06
2022-08-22T09:51:32.246Z,32.89
2022-08-22T09:54:22.525Z,32.97
2022-08-22T09:57:09.675Z,33.26
2022-08-22T09:59:47.766Z,32.61
2022-08-22T10:02:31.229Z,32.60
2022-08-22T10:05:07.258Z,32.76
2022-08-22T10:07:58.226Z,32.07
2022-08-22T10:10:45.937Z,31.59
2022-08-22T10:13:28.693Z,31.22
2022-08-22T10:16:06.245Z,31.16
2022-08-22T10:18:52.741Z,30.88
2022-08-22T10:21:35.857Z,30.34
2022-08-22T10:24:24.606Z,30.32
2022-08-22T10:27:04.382Z,30.32
2022-08-22T10:29:53.449Z,30.74
2022-08-22T10:32:33.000Z,31.22
2022-08-22T10:35:16.617Z,30.24
2022-08-22T10:37:55.786Z,30.35
2022-08-22T10:40:31.102Z,30.41
2022-08-22T10:43:10.417Z,30.66
2022-08-22T10:45:45.570Z,30.36
2022-08-22T10:48:32.270Z,30.30
2022-08-22T10:51:22.306Z,30.98
2022-08-22T10:54:04.961Z,30.78
2022-08-22T10:56:40.726Z,30.71
2022-08-22T10:59:33.526Z,31.08
2022-08-22T11:02:18.712Z,30.77
2022-08-22T11:05:21.232Z,30.79
2022-08-22T11:08:03.932Z,31.11
2022-08-22T11:10:49.206Z,31.49
2022-08-22T11:13:30.715Z,31.41
2022-08-22T11:16:15.228Z,31.40
2022-08-22T11:19:15.397Z,31.66
2022-08-22T11:21:56.490Z,31.60
2022-08-22T11:25:05.073Z,31.24
2022-08-22T11:27:44.292Z,30.72
2022-08-22T11:30:18.724Z,30.43
2022-08-22T11:33:46.359Z,30.14
2022-08-22T11:36:39.586Z,30.06
2022-08-22T11:39:24.531Z,29.93
2022-08-22T11:42:06.274Z,29.95
2022-08-22T11:44:50.461Z,29.84
2022-08-22T11:47:26.764Z,30.43
2022-08-22T11:50:10.759Z,29.64
2022-08-22T11:53:09.864Z,29.93
2022-08-22T11:55:42.812Z,29.22
2022-08-22T11:58:29.226Z,28.97
2022-08-22T12:01:04.707Z,28.84
2022-08-22T12:03:58.699Z,29.51
2022-08-22T12:06:44.896Z,29.01
2022-08-22T12:09:35.665Z,28.74
2022-08-22T12:12:20.850Z,28.36
2022-08-22T12:15:00.004Z,28.26
2022-08-22T12:18:04.870Z,28.66
2022-08-22T12:20:52.449Z,28.50
2022-08-22T12:23:52.650Z,27.97
2022-08-22T12:26:31.469Z,28.26
2022-08-22T12:29:33.573Z,28.22
2022-08-22T12:32:45.804Z,28.68
2022-08-22T12:35:32.653Z,28.17
2022-08-22T12:38:28.844Z,28.01
2022-08-22T12:41:35.032Z,28.15
2022-08-22T12:44:22.491Z,28.01
2022-08-22T12:47:06.772Z,28.36
2022-08-22T12:57:36.500Z,28.38
2022-08-22T13:00:26.714Z,28.98
2022-08-22T13:02:56.993Z,28.33
2022-08-22T13:05:29.532Z,28.38
2022-08-22T13:08:04.622Z,28.43
2022-08-22T13:10:47.803Z,28.35
2022-08-22T13:13:36.962Z,28.23
2022-08-22T13:16:11.677Z,28.25
2022-08-22T13:18:55.030Z,28.41
2022-08-22T13:21:34.602Z,28.11
2022-08-22T13:24:10.481Z,28.15
2022-08-22T13:26:50.053Z,28.34
2022-08-22T13:29:27.339Z,28.20
2022-08-22T13:32:11.325Z,28.43
2022-08-22T13:34:45.962Z,28.45
2022-08-22T13:37:24.397Z,28.60
2022-08-22T13:39:59.763Z,28.60
2022-08-22T13:42:32.512Z,28.33
2022-08-22T13:45:11.960Z,28.59
2022-08-22T13:47:51.389Z,28.86
2022-08-22T13:50:24.249Z,28.84
2022-08-22T13:53:00.255Z,28.63
2022-08-22T13:55:38.063Z,28.58
2022-08-22T13:58:24.945Z,28.39
2022-08-22T14:01:25.426Z,28.74
2022-08-22T14:04:01.118Z,28.82
2022-08-22T14:06:43.744Z,29.19
2022-08-22T14:09:32.146Z,29.30
2022-08-22T14:12:12.151Z,29.65
2022-08-22T14:14:45.878Z,29.87
2022-08-22T14:17:21.498Z,29.45
2022-08-22T14:20:01.501Z,28.84
2022-08-22T14:22:35.987Z,28.77
2022-08-22T14:25:10.234Z,28.44
2022-08-22T14:27:58.639Z,28.88
2022-08-22T14:30:30.808Z,28.51
2022-08-22T14:33:22.781Z,28.64
2022-08-22T14:35:57.586Z,28.47
2022-08-22T14:38:35.825Z,28.90
2022-08-22T14:41:08.065Z,28.83
2022-08-22T14:43:52.243Z,28.77
2022-08-22T14:46:26.929Z,28.83
2022-08-22T14:49:38.287Z,28.49
2022-08-22T14:52:19.527Z,28.69
2022-08-22T14:54:51.020Z,28.53
2022-08-22T14:57:20.912Z,28.84
2022-08-22T14:59:53.428Z,28.16
2022-08-22T15:02:28.298Z,28.47
2022-08-22T15:05:01.208Z,28.54
2022-08-22T15:07:37.551Z,29.05
2022-08-22T15:10:20.773Z,29.37
2022-08-22T15:12:55.581Z,29.76
2022-08-22T15:15:49.723Z,29.71
2022-08-22T15:18:36.209Z,30.06
2022-08-22T15:21:10.066Z,30.26
2022-08-22T15:23:46.723Z,30.67
2022-08-22T15:26:25.053Z,30.72
2022-08-22T15:29:06.501Z,30.45
2022-08-22T15:31:43.460Z,30.35
2022-08-22T15:34:25.149Z,30.44
2022-08-22T15:37:08.340Z,30.42
2022-08-22T15:40:02.658Z,30.92
2022-08-22T15:42:36.462Z,31.40
2022-08-22T15:45:07.701Z,31.18
2022-08-22T15:47:39.218Z,30.67
2022-08-22T15:50:15.334Z,30.77
2022-08-22T15:53:21.152Z,30.92
2022-08-22T15:56:24.498Z,31.36
2022-08-22T15:59:11.137Z,31.52
2022-08-22T16:01:49.803Z,31.49
2022-08-22T16:04:35.473Z,31.67
2022-08-22T16:07:21.079Z,31.64
2022-08-22T16:09:53.521Z,32.29
2022-08-22T16:12:35.432Z,31.94
2022-08-22T16:15:09.243Z,32.46
2022-08-22T16:17:53.567Z,32.58
2022-08-22T16:20:55.606Z,32.96
2022-08-22T16:23:24.907Z,33.23
2022-08-22T16:26:15.141Z,33.31
2022-08-22T16:28:59.166Z,33.80
2022-08-22T16:31:32.582Z,34.22
2022-08-22T16:34:32.570Z,34.03
2022-08-22T16:37:47.631Z,34.38
2022-08-22T16:40:28.258Z,34.43
2022-08-22T16:43:28.995Z,34.41
2022-08-22T16:46:23.378Z,35.15
2022-08-22T16:49:03.220Z,35.42
2022-08-22T16:51:32.752Z,35.32
2022-08-22T16:54:11.889Z,35.77
2022-08-22T16:57:05.182Z,35.69
2022-08-22T16:59:54.373Z,36.08
2022-08-22T17:02:43.583Z,36.34
2022-08-22T17:05:46.682Z,36.04
2022-08-22T17:08:34.227Z,36.35
2022-08-22T17:11:53.607Z,36.56
2022-08-22T17:14:43.704Z,37.23
2022-08-22T17:17:26.788Z,37.32
2022-08-22T17:20:15.132Z,37.39
2022-08-22T17:22:57.911Z,38.05
2022-08-22T17:25:36.024Z,38.19
2022-08-22T17:28:17.213Z,37.83
2022-08-22T17:31:07.159Z,38.06
2022-08-22T17:34:13.899Z,38.21
2022-08-22T17:36:53.228Z,37.44
2022-08-22T17:39:51.746Z,38.33
2022-08-22T17:42:44.366Z,38.25
2022-08-22T17:45:27.710Z,38.33
2022-08-22T17:48:07.599Z,38.57
2022-08-22T17:50:42.185Z,38.54
2022-08-22T17:53:18.345Z,38.76
2022-08-22T17:56:02.600Z,38.63
2022-08-22T17:58:43.591Z,38.61
2022-08-22T18:01:15.380Z,38.03
2022-08-22T18:03:52.532Z,38.68
2022-08-22T18:06:26.677Z,38.76
2022-08-22T18:09:17.056Z,39.19
2022-08-22T18:11:56.866Z,39.37
2022-08-22T18:14:34.900Z,39.41
2022-08-22T18:17:19.186Z,40.04
2022-08-22T18:20:07.754Z,40.11
2022-08-22T18:22:45.987Z,40.25
2022-08-22T18:25:34.771Z,40.76
2022-08-22T18:28:11.984Z,41.48
2022-08-22T18:30:55.091Z,41.16
2022-08-22T18:33:32.903Z,40.80
2022-08-22T18:36:15.826Z,41.16
2022-08-22T18:38:55.143Z,40.69
2022-08-22T18:41:37.937Z,41.08
2022-08-22T18:44:17.015Z,41.30
2022-08-22T18:46:51.658Z,41.42
2022-08-22T18:49:53.679Z,41.33
2022-08-22T18:52:41.441Z,41.48
2022-08-22T18:55:31.636Z,41.52
2022-08-22T18:58:32.603Z,41.01
2022-08-22T19:01:42.125Z,41.23
2022-08-22T19:04:43.118Z,41.18
2022-08-22T19:07:28.020Z,41.88
2022-08-22T19:10:23.094Z,41.60
2022-08-22T19:13:14.322Z,42.15
2022-08-22T19:16:04.150Z,42.00
2022-08-22T19:18:46.453Z,42.24
2022-08-22T19:21:47.268Z,42.64
2022-08-22T19:24:37.392Z,42.73
2022-08-22T19:27:31.520Z,42.57
2022-08-22T19:30:04.411Z,42.70
2022-08-22T19:33:04.111Z,42.76
2022-08-22T19:35:47.378Z,42.94
2022-08-22T19:38:53.088Z,43.54
2022-08-22T19:42:00.753Z,43.19
2022-08-22T19:44:37.239Z,42.87
2022-08-22T19:47:17.666Z,43.20
2022-08-22T19:50:05.683Z,43.09
2022-08-22T19:53:10.385Z,42.76
2022-08-22T19:55:54.813Z,43.07
2022-08-22T19:58:40.381Z,42.73
2022-08-22T20:01:43.176Z,43.13
2022-08-22T20:04:37.743Z,42.75
2022-08-22T20:07:19.465Z,43.15
2022-08-22T20:09:59.037Z,43.25
2022-08-22T20:12:50.718Z,43.56
2022-08-22T20:15:22.034Z,43.12
2022-08-22T20:21:02.057Z,43.74
2022-08-22T20:23:34.598Z,44.33
2022-08-22T20:26:04.686Z,44.27
2022-08-22T20:28:52.012Z,44.80
2022-08-22T20:31:24.123Z,45.35
2022-08-22T20:33:59.321Z,45.65
2022-08-22T20:39:11.354Z,46.33
2022-08-22T20:41:45.189Z,46.59
2022-08-22T20:46:57.450Z,47.21
2022-08-22T20:49:31.419Z,47.45
2022-08-22T20:52:05.960Z,47.02
2022-08-22T20:54:39.400Z,47.42
2022-08-22T20:57:16.697Z,47.39
2022-08-22T20:59:54.877Z,47.46
2022-08-22T21:02:28.711Z,47.54
2022-08-22T21:05:03.277Z,47.03
2022-08-22T21:07:35.607Z,46.78
2022-08-22T21:10:28.342Z,46.58
2022-08-22T21:13:08.622Z,46.85
2022-08-22T21:15:40.469Z,46.61
2022-08-22T21:18:11.816Z,46.69
2022-08-22T21:20:41.669Z,46.96
2022-08-22T21:23:15.589Z,47.11
2022-08-22T21:25:59.146Z,46.53
2022-08-22T21:28:31.318Z,47.00
2022-08-22T21:33:44.536Z,46.94
2022-08-22T21:36:22.347Z,46.99
2022-08-22T21:38:54.829Z,46.61
2022-08-22T21:41:33.539Z,46.93
2022-08-22T21:44:40.018Z,47.09
2022-08-22T21:47:30.736Z,47.09
2022-08-22T21:50:12.531Z,46.88
2022-08-22T21:52:44.939Z,47.16
2022-08-22T21:55:25.989Z,47.25
2022-08-22T21:58:22.019Z,47.74
2022-08-22T22:01:30.167Z,47.60
2022-08-22T22:04:00.692Z,47.89
2022-08-22T22:06:29.914Z,48.12
2022-08-22T22:08:59.150Z,48.27
2022-08-22T22:11:28.407Z,48.02
2022-08-22T22:14:04.671Z,48.56
2022-08-22T22:16:34.096Z,48.26
2022-08-22T22:19:03.376Z,48.53
2022-08-22T22:21:40.277Z,48.42
2022-08-22T22:24:14.734Z,48.58
2022-08-22T22:26:44.176Z,48.64
2022-08-22T22:29:15.705Z,49.02
2022-08-22T22:31:45.334Z,49.42
2022-08-22T22:34:19.705Z,49.88
2022-08-22T22:36:49.299Z,49.86
2022-08-22T22:39:18.478Z,50.09
2022-08-22T22:41:48.557Z,50.78
2022-08-22T22:44:25.328Z,50.68
2022-08-22T22:46:58.570Z,51.79
2022-08-22T22:49:36.535Z,51.34
2022-08-22T22:52:07.111Z,51.98
2022-08-22T22:54:46.743Z,52.76
2022-08-22T22:57:25.583Z,52.76
2022-08-22T23:00:02.185Z,53.43
2022-08-22T23:02:33.424Z,53.65
2022-08-22T23:05:02.594Z,53.54
2022-08-22T23:07:33.803Z,53.93
2022-08-22T23:10:12.330Z,54.00
2022-08-22T23:12:41.988Z,54.14
2022-08-22T23:15:14.345Z,54.48
2022-08-22T23:17:43.628Z,54.36
2022-08-22T23:20:13.127Z,54.48
2022-08-22T23:22:51.188Z,54.34
2022-08-22T23:25:20.637Z,54.49
2022-08-22T23:27:57.547Z,54.40
2022-08-22T23:30:28.629Z,54.55
2022-08-22T23:33:03.066Z,54.87
2022-08-22T23:35:32.353Z,55.09
2022-08-22T23:38:01.858Z,55.25
2022-08-22T23:40:31.297Z,55.64
2022-08-22T23:43:01.008Z,55.75
2022-08-22T23:45:32.465Z,55.81
2022-08-22T23:48:01.775Z,55.61
2022-08-22T23:50:31.111Z,55.58
2022-08-22T23:53:00.458Z,55.94
2022-08-22T23:55:29.789Z,55.92
2022-08-22T23:57:59.071Z,55.93
